createdAt,value
2022-11-24T00:01:31.085Z,9.33
2022-11-24T00:05:15.596Z,5.37
2022-11-24T00:08:59.922Z,5.03
2022-11-24T00:12:41.930Z,9.13
2022-11-24T00:16:26.459Z,6.17
2022-11-24T00:20:09.191Z,6.27
2022-11-24T00:23:52.781Z,4.33
2022-11-24T00:27:34.713Z,8.47
2022-11-24T00:31:22.104Z,6.10
2022-11-24T00:35:11.785Z,7.57
2022-11-24T00:39:00.337Z,6.47
2022-11-24T00:42:42.463Z,8.53
2022-11-24T00:46:27.382Z,5.83
2022-11-24T00:50:15.737Z,14.93
2022-11-24T01:01:37.184Z,10.07
2022-11-24T01:05:20.030Z,10.73
2022-11-24T01:09:02.370Z,11.90
2022-11-24T01:12:44.280Z,9.83
2022-11-24T01:16:30.871Z,9.00
2022-11-24T01:20:13.184Z,13.27
2022-11-24T01:23:55.311Z,15.87
2022-11-24T01:27:37.703Z,9.83
2022-11-24T01:31:20.687Z,11.90
2022-11-24T01:35:17.594Z,11.20
2022-11-24T01:38:59.779Z,11.03
2022-11-24T01:42:55.210Z,14.97
2022-11-24T01:46:53.492Z,12.03
2022-11-24T01:50:36.668Z,16.53
2022-11-24T01:55:13.422Z,17.43
2022-11-24T01:59:07.724Z,19.77
2022-11-24T02:03:20.320Z,17.60
2022-11-24T02:07:05.577Z,11.93
2022-11-24T02:10:48.623Z,16.33
2022-11-24T02:18:31.170Z,16.70
2022-11-24T02:22:40.102Z,18.77
2022-11-24T02:26:49.106Z,13.60
2022-11-24T02:30:39.584Z,21.33
2022-11-24T02:34:21.714Z,22.80
2022-11-24T02:38:03.762Z,24.10
2022-11-24T02:41:54.644Z,19.20
2022-11-24T02:45:40.082Z,15.43
2022-11-24T02:49:25.182Z,22.30
2022-11-24T02:53:07.163Z,14.03
2022-11-24T02:56:49.224Z,10.27
2022-11-24T03:00:35.561Z,11.37
2022-11-24T03:04:24.146Z,17.95
2022-11-24T03:08:06.112Z,16.37
2022-11-24T03:11:48.245Z,21.97
2022-11-24T03:15:30.410Z,16.37
2022-11-24T03:19:12.448Z,21.30
2022-11-24T03:22:54.422Z,18.67
2022-11-24T03:26:36.359Z,19.13
2022-11-24T03:30:18.403Z,19.87
2022-11-24T03:34:00.277Z,23.17
2022-11-24T03:37:51.632Z,13.97
2022-11-24T03:41:45.153Z,26.60
2022-11-24T03:49:44.038Z,18.97
2022-11-24T03:53:30.578Z,15.23
2022-11-24T04:01:15.742Z,17.50
2022-11-24T04:05:02.519Z,13.97
2022-11-24T04:08:45.535Z,18.73
2022-11-24T04:12:49.986Z,21.13
2022-11-24T04:16:37.443Z,14.50
2022-11-24T04:20:24.563Z,15.93
2022-11-24T04:24:09.935Z,16.50
2022-11-24T04:27:53.498Z,17.17
2022-11-24T04:31:35.468Z,19.83
2022-11-24T04:43:13.971Z,16.23
2022-11-24T04:46:56.102Z,16.40
2022-11-24T04:50:40.423Z,23.20
2022-11-24T04:54:25.243Z,19.37
2022-11-24T04:58:13.423Z,21.07
2022-11-24T05:01:56.401Z,14.03
2022-11-24T05:05:38.356Z,20.90
2022-11-24T05:09:20.351Z,19.90
2022-11-24T05:13:11.449Z,20.83
2022-11-24T05:16:53.277Z,24.23
2022-11-24T05:20:35.848Z,23.33
2022-11-24T05:24:17.695Z,24.33
2022-11-24T05:28:05.077Z,20.03
2022-11-24T05:31:47.215Z,23.50
2022-11-24T05:35:29.191Z,19.67
2022-11-24T05:39:12.255Z,21.53
2022-11-24T05:42:58.576Z,19.50
2022-11-24T05:46:41.419Z,22.73
2022-11-24T05:50:24.038Z,20.50
2022-11-24T05:54:06.068Z,26.93
2022-11-24T05:57:57.902Z,38.60
2022-11-24T06:01:39.830Z,27.07
2022-11-24T06:05:22.010Z,23.03
2022-11-24T06:09:06.125Z,21.90
2022-11-24T06:12:48.396Z,19.97
2022-11-24T06:16:30.928Z,23.47
2022-11-24T06:20:13.509Z,14.00
2022-11-24T06:23:55.474Z,15.67
2022-11-24T06:27:40.294Z,15.00
2022-11-24T06:31:26.740Z,16.10
2022-11-24T06:38:51.079Z,12.47
2022-11-24T06:42:33.779Z,15.37
2022-11-24T06:46:15.891Z,16.57
2022-11-24T06:50:01.341Z,17.63
2022-11-24T06:53:46.002Z,15.97
2022-11-24T06:57:33.287Z,21.97
2022-11-24T07:01:23.455Z,13.73
2022-11-24T07:05:06.001Z,10.87
2022-11-24T07:08:49.024Z,19.10
2022-11-24T07:12:35.177Z,19.57
2022-11-24T07:16:25.791Z,16.43
2022-11-24T07:20:11.625Z,16.00
2022-11-24T07:23:55.832Z,19.55
2022-11-24T07:27:41.412Z,22.80
2022-11-24T07:31:26.561Z,25.63
2022-11-24T07:35:08.579Z,29.30
2022-11-24T07:38:50.662Z,32.57
2022-11-24T07:42:32.541Z,30.43
2022-11-24T07:46:16.936Z,29.57
2022-11-24T07:49:59.106Z,39.87
2022-11-24T07:53:41.244Z,29.40
2022-11-24T07:57:23.661Z,27.10
2022-11-24T08:01:17.849Z,29.60
2022-11-24T08:04:59.895Z,26.00
2022-11-24T08:08:43.759Z,19.90
2022-11-24T08:12:26.799Z,30.23
2022-11-24T08:16:18.028Z,25.17
2022-11-24T08:20:00.972Z,31.70
2022-11-24T08:23:49.540Z,31.40
2022-11-24T08:27:31.551Z,27.93
2022-11-24T08:31:16.527Z,35.10
2022-11-24T08:35:08.516Z,22.77
2022-11-24T08:38:59.683Z,29.63
2022-11-24T08:42:41.676Z,33.30
2022-11-24T08:46:24.846Z,41.10
2022-11-24T08:50:18.280Z,32.40
2022-11-24T08:54:03.785Z,25.93
2022-11-24T08:57:45.922Z,28.23
2022-11-24T09:01:29.409Z,29.17
2022-11-24T09:05:35.868Z,28.73
2022-11-24T09:09:14.047Z,30.63
2022-11-24T09:12:56.012Z,32.90
2022-11-24T09:16:38.086Z,32.13
2022-11-24T09:20:27.333Z,30.37
2022-11-24T09:24:10.510Z,36.17
2022-11-24T09:27:55.130Z,34.10
2022-11-24T09:31:41.534Z,26.47
2022-11-24T09:39:08.579Z,25.13
2022-11-24T09:43:41.415Z,32.73
2022-11-24T09:48:06.742Z,29.10
2022-11-24T09:55:45.234Z,28.03
2022-11-24T09:59:31.561Z,30.13
2022-11-24T10:08:08.031Z,34.90
2022-11-24T10:21:45.023Z,26.33
2022-11-24T10:30:24.677Z,20.17
2022-11-24T10:39:43.474Z,23.83
2022-11-24T10:43:48.107Z,19.33
2022-11-24T10:47:33.704Z,21.33
2022-11-24T10:51:42.618Z,16.53
2022-11-24T10:56:35.134Z,24.67
2022-11-24T11:01:06.951Z,23.90
2022-11-24T11:24:33.822Z,23.80
2022-11-24T11:28:33.228Z,23.90
2022-11-24T11:36:34.271Z,24.87
2022-11-24T11:44:38.544Z,20.37
2022-11-24T11:48:43.095Z,18.07
2022-11-24T11:52:36.347Z,23.37
2022-11-24T11:57:02.054Z,17.50
2022-11-24T12:05:18.200Z,26.50
2022-11-24T12:09:46.445Z,21.23
2022-11-24T12:18:33.476Z,18.20
2022-11-24T12:22:50.155Z,21.27
2022-11-24T12:27:20.903Z,26.83
2022-11-24T12:31:27.824Z,19.33
2022-11-24T12:35:38.008Z,24.50
2022-11-24T12:39:59.120Z,22.23
2022-11-24T12:43:45.687Z,17.87
2022-11-24T12:48:01.491Z,16.83
2022-11-24T12:51:55.402Z,17.50
2022-11-24T12:55:44.032Z,22.17
2022-11-24T13:04:35.224Z,18.80
2022-11-24T13:08:17.917Z,17.90
2022-11-24T13:12:21.459Z,17.63
2022-11-24T13:20:24.305Z,17.00
2022-11-24T13:24:38.994Z,30.73
2022-11-24T13:29:13.036Z,18.63
2022-11-24T13:33:16.904Z,20.33
2022-11-24T13:37:33.843Z,12.07
2022-11-24T13:41:27.720Z,13.27
2022-11-24T13:45:49.759Z,26.10
2022-11-24T13:49:47.274Z,20.40
2022-11-24T13:53:35.583Z,20.57
2022-11-24T13:58:03.502Z,18.67
2022-11-24T14:01:59.910Z,12.37
2022-11-24T14:05:53.741Z,10.48
2022-11-24T14:09:54.078Z,11.00
2022-11-24T14:13:36.467Z,9.17
2022-11-24T14:17:28.867Z,11.00
2022-11-24T14:21:51.343Z,13.17
2022-11-24T14:25:51.198Z,9.97
2022-11-24T14:29:35.094Z,13.60
2022-11-24T14:33:19.879Z,8.07
2022-11-24T14:37:03.630Z,13.83
2022-11-24T14:40:48.962Z,21.70
2022-11-24T14:44:57.888Z,13.27
2022-11-24T14:48:56.283Z,14.07
2022-11-24T14:53:09.509Z,21.80
2022-11-24T14:57:22.648Z,11.33
2022-11-24T15:01:27.448Z,13.00
2022-11-24T15:05:11.122Z,12.43
2022-11-24T15:08:57.328Z,14.00
2022-11-24T15:16:47.279Z,11.80
2022-11-24T15:20:43.331Z,9.50
2022-11-24T15:24:27.436Z,17.20
2022-11-24T15:28:29.678Z,9.97
2022-11-24T15:32:22.831Z,14.90
2022-11-24T15:36:16.531Z,11.13
2022-11-24T15:40:01.089Z,12.23
2022-11-24T15:43:48.198Z,15.93
2022-11-24T15:47:37.992Z,16.13
2022-11-24T15:52:20.131Z,14.67
2022-11-24T15:56:08.817Z,17.03
2022-11-24T15:59:54.002Z,20.23
2022-11-24T16:03:50.770Z,19.47
2022-11-24T16:11:25.643Z,22.77
2022-11-24T16:15:08.336Z,20.03
2022-11-24T16:18:55.157Z,16.83
2022-11-24T16:22:37.462Z,22.53
2022-11-24T16:26:28.594Z,17.50
2022-11-24T16:30:31.936Z,21.17
2022-11-24T16:34:19.271Z,22.10
2022-11-24T16:38:04.297Z,19.23
2022-11-24T16:42:04.928Z,20.73
2022-11-24T16:46:10.963Z,20.70
2022-11-24T16:49:54.494Z,27.63
2022-11-24T16:53:43.171Z,26.70
2022-11-24T16:57:25.925Z,29.10
2022-11-24T17:01:18.565Z,23.52
2022-11-24T17:05:02.901Z,26.00
2022-11-24T17:08:47.377Z,22.37
2022-11-24T17:12:29.453Z,21.77
2022-11-24T17:16:14.646Z,22.07
2022-11-24T17:19:57.042Z,21.50
2022-11-24T17:23:39.017Z,26.37
2022-11-24T17:27:21.068Z,21.17
2022-11-24T17:31:21.766Z,23.97
2022-11-24T17:35:10.825Z,23.00
2022-11-24T17:38:54.433Z,27.27
2022-11-24T17:42:37.093Z,19.43
2022-11-24T17:46:20.516Z,31.20
2022-11-24T17:50:09.048Z,25.97
2022-11-24T17:53:52.391Z,22.20
2022-11-24T17:57:34.473Z,21.10
2022-11-24T18:01:32.670Z,25.77
2022-11-24T18:05:14.741Z,22.47
2022-11-24T18:08:59.256Z,26.73
2022-11-24T18:12:44.951Z,17.27
2022-11-24T18:16:28.756Z,20.52
2022-11-24T18:20:11.310Z,17.73
2022-11-24T18:23:53.379Z,17.33
2022-11-24T18:27:35.349Z,22.27
2022-11-24T18:31:22.559Z,18.50
2022-11-24T18:35:06.275Z,16.50
2022-11-24T18:38:48.191Z,21.57
2022-11-24T18:42:30.106Z,17.73
2022-11-24T18:46:15.107Z,16.20
2022-11-24T18:50:00.125Z,17.93
2022-11-24T18:53:53.527Z,35.90
2022-11-24T18:57:36.270Z,21.90
2022-11-24T19:01:20.488Z,25.80
2022-11-24T19:05:03.393Z,23.80
2022-11-24T19:08:46.254Z,17.83
2022-11-24T19:12:28.389Z,14.63
2022-11-24T19:16:13.862Z,17.17
2022-11-24T19:19:56.367Z,22.00
2022-11-24T19:23:41.377Z,23.20
2022-11-24T19:27:23.435Z,15.77
2022-11-24T19:31:10.967Z,21.13
2022-11-24T19:34:52.803Z,14.80
2022-11-24T19:38:35.642Z,15.33
2022-11-24T19:42:17.904Z,23.83
2022-11-24T19:46:05.171Z,23.73
2022-11-24T19:49:47.128Z,21.30
2022-11-24T19:53:30.573Z,22.90
2022-11-24T19:57:12.602Z,19.37
2022-11-24T20:00:54.784Z,22.27
2022-11-24T20:04:39.848Z,21.67
2022-11-24T20:08:22.930Z,20.57
2022-11-24T20:12:05.458Z,18.77
2022-11-24T20:15:47.553Z,20.47
2022-11-24T20:19:29.459Z,25.60
2022-11-24T20:23:11.473Z,29.17
2022-11-24T20:26:56.674Z,27.43
2022-11-24T20:30:38.810Z,22.93
2022-11-24T20:34:21.694Z,20.47
2022-11-24T20:38:03.633Z,20.97
2022-11-24T20:41:45.728Z,15.80
2022-11-24T20:45:27.675Z,22.43
2022-11-24T20:49:13.245Z,23.17
2022-11-24T20:52:57.423Z,27.95
2022-11-24T20:56:41.579Z,20.87
2022-11-24T21:00:23.555Z,25.87
2022-11-24T21:04:08.022Z,24.47
2022-11-24T21:07:50.153Z,18.10
2022-11-24T21:11:33.061Z,23.77
2022-11-24T21:15:15.051Z,17.53
2022-11-24T21:19:02.984Z,21.13
2022-11-24T21:22:45.027Z,19.27
2022-11-24T21:26:27.134Z,24.83
2022-11-24T21:30:09.884Z,19.30
2022-11-24T21:33:53.804Z,18.37
2022-11-24T21:37:35.778Z,20.23
2022-11-24T21:41:18.091Z,14.63
2022-11-24T21:45:02.202Z,21.77
2022-11-24T21:48:44.772Z,25.20
2022-11-24T21:52:26.781Z,18.50
2022-11-24T21:56:14.217Z,19.93
2022-11-24T21:59:56.243Z,25.17
2022-11-24T22:03:38.125Z,18.47
2022-11-24T22:07:20.143Z,18.83
2022-11-24T22:11:27.167Z,24.73
2022-11-24T22:15:10.053Z,20.08
2022-11-24T22:18:52.355Z,19.20
2022-11-24T22:22:34.234Z,23.37
2022-11-24T22:26:21.910Z,25.37
2022-11-24T22:30:06.054Z,16.43
2022-11-24T22:33:50.767Z,21.60
2022-11-24T22:37:34.313Z,22.05
2022-11-24T22:41:18.175Z,22.40
2022-11-24T22:45:00.092Z,24.47
2022-11-24T22:48:45.154Z,20.30
2022-11-24T22:52:27.065Z,18.90
2022-11-24T22:56:11.380Z,21.17
2022-11-24T22:59:53.397Z,15.57
2022-11-24T23:03:36.525Z,19.80
2022-11-24T23:07:18.481Z,23.53
2022-11-24T23:11:01.250Z,19.10
2022-11-24T23:14:45.452Z,19.80
2022-11-24T23:18:27.518Z,20.00
2022-11-24T23:22:13.506Z,15.00
2022-11-24T23:25:55.626Z,15.23
2022-11-24T23:29:37.505Z,18.37
2022-11-24T23:33:22.425Z,19.17
2022-11-24T23:37:04.295Z,19.07
2022-11-24T23:40:46.200Z,18.83
2022-11-24T23:44:28.533Z,15.10
2022-11-24T23:48:20.661Z,17.00
2022-11-24T23:52:02.855Z,20.90
2022-11-24T23:55:53.937Z,22.93
